sensor_id;sensor_type;location;lat;lon;timestamp;P1;durP1;ratioP1;P2;durP2;ratioP2
73434;SDS011;61648;52.094;5.054;2022-07-12T04:45:45;3.33;;;1.50;;
73434;SDS011;61648;52.094;5.054;2022-07-12T04:48:11;2.90;;;1.40;;
73434;SDS011;61648;52.094;5.054;2022-07-12T04:50:37;3.55;;;1.48;;
73434;SDS011;61648;52.094;5.054;2022-07-12T04:53:03;4.22;;;1.60;;
73434;SDS011;61648;52.094;5.054;2022-07-12T04:55:29;2.85;;;1.15;;
73434;SDS011;61648;52.094;5.054;2022-07-12T04:57:55;3.78;;;1.30;;
73434;SDS011;61648;52.094;5.054;2022-07-12T05:00:21;2.28;;;1.02;;
73434;SDS011;61648;52.094;5.054;2022-07-12T05:02:47;2.60;;;1.10;;
73434;SDS011;61648;52.094;5.054;2022-07-12T05:05:13;2.97;;;1.20;;
73434;SDS011;61648;52.094;5.054;2022-07-12T05:07:40;1.67;;;1.05;;
73434;SDS011;61648;52.094;5.054;2022-07-12T05:10:06;2.80;;;1.20;;
73434;SDS011;61648;52.094;5.054;2022-07-12T05:12:33;2.67;;;1.30;;
73434;SDS011;61648;52.094;5.054;2022-07-12T05:15:00;3.17;;;1.38;;
73434;SDS011;61648;52.094;5.054;2022-07-12T05:17:26;1.75;;;1.10;;
73434;SDS011;61648;52.094;5.054;2022-07-12T05:19:52;3.55;;;1.50;;
73434;SDS011;61648;52.094;5.054;2022-07-12T05:22:18;2.80;;;1.35;;
73434;SDS011;61648;52.094;5.054;2022-07-12T05:24:44;3.47;;;1.27;;
73434;SDS011;61648;52.094;5.054;2022-07-12T05:27:10;4.13;;;1.55;;
73434;SDS011;61648;52.094;5.054;2022-07-12T05:29:36;4.10;;;1.48;;
73434;SDS011;61648;52.094;5.054;2022-07-12T05:32:01;2.92;;;1.23;;
73434;SDS011;61648;52.094;5.054;2022-07-12T05:34:31;2.55;;;1.38;;
73434;SDS011;61648;52.094;5.054;2022-07-12T05:36:57;4.57;;;1.30;;
73434;SDS011;61648;52.094;5.054;2022-07-12T05:39:23;4.70;;;1.70;;
73434;SDS011;61648;52.094;5.054;2022-07-12T05:41:49;3.67;;;1.48;;
73434;SDS011;61648;52.094;5.054;2022-07-12T05:44:15;4.45;;;1.48;;
73434;SDS011;61648;52.094;5.054;2022-07-12T05:46:49;2.22;;;1.40;;
73434;SDS011;61648;52.094;5.054;2022-07-12T05:49:15;2.85;;;1.58;;
73434;SDS011;61648;52.094;5.054;2022-07-12T05:51:41;4.35;;;1.40;;
73434;SDS011;61648;52.094;5.054;2022-07-12T05:54:26;4.28;;;1.70;;
73434;SDS011;61648;52.094;5.054;2022-07-12T05:56:52;3.40;;;1.60;;
73434;SDS011;61648;52.094;5.054;2022-07-12T05:59:21;2.40;;;1.27;;
73434;SDS011;61648;52.094;5.054;2022-07-12T06:01:47;2.15;;;1.10;;
73434;SDS011;61648;52.094;5.054;2022-07-12T06:04:13;4.10;;;1.80;;
73434;SDS011;61648;52.094;5.054;2022-07-12T06:06:39;3.97;;;1.38;;
73434;SDS011;61648;52.094;5.054;2022-07-12T06:09:05;3.20;;;1.30;;
73434;SDS011;61648;52.094;5.054;2022-07-12T06:11:31;3.10;;;1.50;;
73434;SDS011;61648;52.094;5.054;2022-07-12T06:13:58;2.53;;;1.40;;
73434;SDS011;61648;52.094;5.054;2022-07-12T06:16:24;3.58;;;1.50;;
73434;SDS011;61648;52.094;5.054;2022-07-12T06:18:50;3.40;;;1.58;;
73434;SDS011;61648;52.094;5.054;2022-07-12T06:21:16;2.90;;;1.38;;
73434;SDS011;61648;52.094;5.054;2022-07-12T06:23:42;4.80;;;1.67;;
73434;SDS011;61648;52.094;5.054;2022-07-12T06:26:08;4.22;;;1.70;;
73434;SDS011;61648;52.094;5.054;2022-07-12T06:28:34;2.25;;;1.10;;
73434;SDS011;61648;52.094;5.054;2022-07-12T06:31:02;3.38;;;1.30;;
73434;SDS011;61648;52.094;5.054;2022-07-12T06:33:27;2.92;;;1.35;;
73434;SDS011;61648;52.094;5.054;2022-07-12T06:35:53;4.00;;;1.58;;
73434;SDS011;61648;52.094;5.054;2022-07-12T06:38:19;3.40;;;1.33;;
73434;SDS011;61648;52.094;5.054;2022-07-12T06:40:45;2.72;;;1.48;;
73434;SDS011;61648;52.094;5.054;2022-07-12T06:43:11;2.97;;;1.20;;
73434;SDS011;61648;52.094;5.054;2022-07-12T06:45:38;3.90;;;1.50;;
73434;SDS011;61648;52.094;5.054;2022-07-12T06:48:04;3.50;;;1.45;;
73434;SDS011;61648;52.094;5.054;2022-07-12T06:50:31;2.38;;;1.10;;
73434;SDS011;61648;52.094;5.054;2022-07-12T06:52:57;2.55;;;1.50;;
73434;SDS011;61648;52.094;5.054;2022-07-12T06:55:23;2.50;;;1.25;;
73434;SDS011;61648;52.094;5.054;2022-07-12T06:57:49;2.75;;;1.42;;
73434;SDS011;61648;52.094;5.054;2022-07-12T07:00:15;2.53;;;1.30;;
73434;SDS011;61648;52.094;5.054;2022-07-12T07:02:44;2.13;;;1.20;;
73434;SDS011;61648;52.094;5.054;2022-07-12T07:07:36;2.58;;;1.40;;
73434;SDS011;61648;52.094;5.054;2022-07-12T07:10:02;5.05;;;1.55;;
73434;SDS011;61648;52.094;5.054;2022-07-12T07:12:28;1.88;;;1.27;;
73434;SDS011;61648;52.094;5.054;2022-07-12T07:14:55;4.13;;;1.52;;
73434;SDS011;61648;52.094;5.054;2022-07-12T07:17:20;4.65;;;1.50;;
73434;SDS011;61648;52.094;5.054;2022-07-12T07:19:47;2.92;;;1.15;;
73434;SDS011;61648;52.094;5.054;2022-07-12T07:22:12;2.72;;;1.27;;
73434;SDS011;61648;52.094;5.054;2022-07-12T07:24:39;4.70;;;1.70;;
73434;SDS011;61648;52.094;5.054;2022-07-12T07:27:05;3.20;;;1.25;;
73434;SDS011;61648;52.094;5.054;2022-07-12T07:29:31;3.75;;;1.88;;
73434;SDS011;61648;52.094;5.054;2022-07-12T07:32:16;3.95;;;1.42;;
73434;SDS011;61648;52.094;5.054;2022-07-12T07:34:42;3.60;;;1.48;;
73434;SDS011;61648;52.094;5.054;2022-07-12T07:37:08;4.55;;;1.40;;
73434;SDS011;61648;52.094;5.054;2022-07-12T07:39:34;3.65;;;1.65;;
73434;SDS011;61648;52.094;5.054;2022-07-12T07:42:00;2.67;;;1.52;;
73434;SDS011;61648;52.094;5.054;2022-07-12T07:44:26;3.42;;;1.50;;
73434;SDS011;61648;52.094;5.054;2022-07-12T07:46:52;3.22;;;1.50;;
73434;SDS011;61648;52.094;5.054;2022-07-12T07:49:18;3.58;;;1.60;;
73434;SDS011;61648;52.094;5.054;2022-07-12T07:51:44;4.18;;;1.60;;
73434;SDS011;61648;52.094;5.054;2022-07-12T07:54:10;2.33;;;1.33;;
73434;SDS011;61648;52.094;5.054;2022-07-12T07:56:36;2.97;;;1.30;;
73434;SDS011;61648;52.094;5.054;2022-07-12T07:59:02;3.15;;;1.65;;
73434;SDS011;61648;52.094;5.054;2022-07-12T08:01:28;3.25;;;1.35;;
73434;SDS011;61648;52.094;5.054;2022-07-12T08:04:13;3.22;;;1.30;;
73434;SDS011;61648;52.094;5.054;2022-07-12T08:06:40;2.53;;;1.60;;
73434;SDS011;61648;52.094;5.054;2022-07-12T08:09:06;4.13;;;1.58;;
73434;SDS011;61648;52.094;5.054;2022-07-12T08:11:32;1.90;;;1.33;;
73434;SDS011;61648;52.094;5.054;2022-07-12T08:13:58;3.80;;;1.58;;
73434;SDS011;61648;52.094;5.054;2022-07-12T08:16:24;3.42;;;1.60;;
73434;SDS011;61648;52.094;5.054;2022-07-12T08:18:50;3.65;;;1.40;;
73434;SDS011;61648;52.094;5.054;2022-07-12T08:21:16;4.30;;;1.70;;
73434;SDS011;61648;52.094;5.054;2022-07-12T08:23:42;4.05;;;1.52;;
73434;SDS011;61648;52.094;5.054;2022-07-12T08:26:09;2.75;;;1.33;;
73434;SDS011;61648;52.094;5.054;2022-07-12T08:28:35;2.95;;;1.52;;
73434;SDS011;61648;52.094;5.054;2022-07-12T08:31:01;2.78;;;1.48;;
73434;SDS011;61648;52.094;5.054;2022-07-12T08:33:27;2.25;;;1.38;;
73434;SDS011;61648;52.094;5.054;2022-07-12T08:35:52;2.22;;;1.23;;
73434;SDS011;61648;52.094;5.054;2022-07-12T08:38:18;4.22;;;1.40;;
73434;SDS011;61648;52.094;5.054;2022-07-12T08:40:45;2.40;;;1.20;;
73434;SDS011;61648;52.094;5.054;2022-07-12T08:43:11;3.22;;;1.50;;
73434;SDS011;61648;52.094;5.054;2022-07-12T08:45:37;3.35;;;1.50;;
73434;SDS011;61648;52.094;5.054;2022-07-12T08:48:05;2.35;;;1.38;;
73434;SDS011;61648;52.094;5.054;2022-07-12T08:50:32;3.00;;;1.27;;
73434;SDS011;61648;52.094;5.054;2022-07-12T08:53:01;3.30;;;1.63;;
73434;SDS011;61648;52.094;5.054;2022-07-12T08:55:28;5.30;;;1.77;;
73434;SDS011;61648;52.094;5.054;2022-07-12T08:57:55;5.80;;;1.80;;
73434;SDS011;61648;52.094;5.054;2022-07-12T09:00:22;3.35;;;1.55;;
73434;SDS011;61648;52.094;5.054;2022-07-12T09:02:52;4.82;;;1.60;;
73434;SDS011;61648;52.094;5.054;2022-07-12T09:05:19;3.97;;;1.70;;
73434;SDS011;61648;52.094;5.054;2022-07-12T09:07:46;4.60;;;1.52;;
73434;SDS011;61648;52.094;5.054;2022-07-12T09:10:12;2.92;;;1.70;;
73434;SDS011;61648;52.094;5.054;2022-07-12T09:12:39;2.85;;;1.20;;
73434;SDS011;61648;52.094;5.054;2022-07-12T09:17:37;4.18;;;1.63;;
73434;SDS011;61648;52.094;5.054;2022-07-12T09:20:03;3.30;;;1.67;;
73434;SDS011;61648;52.094;5.054;2022-07-12T09:22:30;3.17;;;1.60;;
73434;SDS011;61648;52.094;5.054;2022-07-12T09:24:56;4.00;;;1.77;;
73434;SDS011;61648;52.094;5.054;2022-07-12T09:27:25;3.38;;;1.65;;
73434;SDS011;61648;52.094;5.054;2022-07-12T09:29:51;3.13;;;1.70;;
73434;SDS011;61648;52.094;5.054;2022-07-12T09:32:17;2.50;;;1.33;;
73434;SDS011;61648;52.094;5.054;2022-07-12T09:35:03;5.28;;;2.03;;
73434;SDS011;61648;52.094;5.054;2022-07-12T09:37:48;2.42;;;1.50;;
73434;SDS011;61648;52.094;5.054;2022-07-12T09:40:14;3.50;;;1.83;;
73434;SDS011;61648;52.094;5.054;2022-07-12T09:42:40;2.97;;;1.63;;
73434;SDS011;61648;52.094;5.054;2022-07-12T09:45:07;5.50;;;2.10;;
73434;SDS011;61648;52.094;5.054;2022-07-12T09:47:34;3.72;;;1.90;;
73434;SDS011;61648;52.094;5.054;2022-07-12T09:50:00;3.20;;;1.80;;
73434;SDS011;61648;52.094;5.054;2022-07-12T09:52:27;3.75;;;2.00;;
73434;SDS011;61648;52.094;5.054;2022-07-12T09:54:56;2.35;;;1.45;;
73434;SDS011;61648;52.094;5.054;2022-07-12T09:57:26;4.85;;;1.80;;
73434;SDS011;61648;52.094;5.054;2022-07-12T09:59:53;4.70;;;2.03;;
73434;SDS011;61648;52.094;5.054;2022-07-12T10:02:22;3.42;;;1.73;;
73434;SDS011;61648;52.094;5.054;2022-07-12T10:04:49;4.07;;;2.00;;
73434;SDS011;61648;52.094;5.054;2022-07-12T10:07:15;4.80;;;2.10;;
73434;SDS011;61648;52.094;5.054;2022-07-12T10:09:45;4.22;;;2.15;;
73434;SDS011;61648;52.094;5.054;2022-07-12T10:12:12;3.63;;;1.90;;
73434;SDS011;61648;52.094;5.054;2022-07-12T10:14:40;2.72;;;1.70;;
73434;SDS011;61648;52.094;5.054;2022-07-12T10:17:07;4.70;;;2.10;;
73434;SDS011;61648;52.094;5.054;2022-07-12T10:19:38;3.30;;;1.80;;
73434;SDS011;61648;52.094;5.054;2022-07-12T10:22:05;4.40;;;1.83;;
73434;SDS011;61648;52.094;5.054;2022-07-12T10:29:49;5.57;;;2.40;;
73434;SDS011;61648;52.094;5.054;2022-07-12T10:34:57;3.83;;;1.90;;
73434;SDS011;61648;52.094;5.054;2022-07-12T10:37:23;3.78;;;2.30;;
73434;SDS011;61648;52.094;5.054;2022-07-12T10:42:34;5.38;;;1.90;;
73434;SDS011;61648;52.094;5.054;2022-07-12T10:45:13;3.70;;;1.92;;
73434;SDS011;61648;52.094;5.054;2022-07-12T10:47:56;4.10;;;2.28;;
73434;SDS011;61648;52.094;5.054;2022-07-12T10:53:30;4.28;;;1.88;;
73434;SDS011;61648;52.094;5.054;2022-07-12T10:58:31;3.80;;;2.00;;
73434;SDS011;61648;52.094;5.054;2022-07-12T11:01:09;5.15;;;2.30;;
73434;SDS011;61648;52.094;5.054;2022-07-12T11:06:05;5.75;;;2.20;;
73434;SDS011;61648;52.094;5.054;2022-07-12T11:08:31;4.35;;;1.90;;
73434;SDS011;61648;52.094;5.054;2022-07-12T11:10:59;3.97;;;2.13;;
73434;SDS011;61648;52.094;5.054;2022-07-12T11:13:26;4.22;;;2.10;;
73434;SDS011;61648;52.094;5.054;2022-07-12T11:15:56;4.40;;;2.08;;
73434;SDS011;61648;52.094;5.054;2022-07-12T11:18:32;3.63;;;1.90;;
73434;SDS011;61648;52.094;5.054;2022-07-12T11:20:58;4.65;;;2.22;;
73434;SDS011;61648;52.094;5.054;2022-07-12T11:23:25;3.92;;;2.10;;
73434;SDS011;61648;52.094;5.054;2022-07-12T11:25:54;3.75;;;1.88;;
73434;SDS011;61648;52.094;5.054;2022-07-12T11:28:21;4.25;;;2.30;;
73434;SDS011;61648;52.094;5.054;2022-07-12T11:30:52;5.00;;;2.00;;
73434;SDS011;61648;52.094;5.054;2022-07-12T11:33:19;4.03;;;2.05;;
73434;SDS011;61648;52.094;5.054;2022-07-12T11:35:50;3.50;;;1.90;;
73434;SDS011;61648;52.094;5.054;2022-07-12T11:38:23;5.88;;;2.30;;
73434;SDS011;61648;52.094;5.054;2022-07-12T11:40:54;3.92;;;2.10;;
73434;SDS011;61648;52.094;5.054;2022-07-12T11:43:21;6.03;;;2.65;;
73434;SDS011;61648;52.094;5.054;2022-07-12T11:45:48;3.90;;;2.00;;
73434;SDS011;61648;52.094;5.054;2022-07-12T11:48:14;5.70;;;2.38;;
73434;SDS011;61648;52.094;5.054;2022-07-12T11:50:44;4.10;;;2.28;;
73434;SDS011;61648;52.094;5.054;2022-07-12T11:53:20;5.30;;;2.40;;
73434;SDS011;61648;52.094;5.054;2022-07-12T11:55:47;4.80;;;2.40;;
73434;SDS011;61648;52.094;5.054;2022-07-12T11:58:14;5.72;;;2.60;;
73434;SDS011;61648;52.094;5.054;2022-07-12T12:00:40;4.78;;;2.38;;
73434;SDS011;61648;52.094;5.054;2022-07-12T12:03:06;4.85;;;2.40;;
73434;SDS011;61648;52.094;5.054;2022-07-12T12:05:33;5.55;;;2.60;;
73434;SDS011;61648;52.094;5.054;2022-07-12T12:07:59;4.38;;;2.08;;
73434;SDS011;61648;52.094;5.054;2022-07-12T12:10:25;3.97;;;2.25;;
73434;SDS011;61648;52.094;5.054;2022-07-12T12:12:53;4.90;;;2.38;;
73434;SDS011;61648;52.094;5.054;2022-07-12T12:15:20;4.80;;;2.50;;
73434;SDS011;61648;52.094;5.054;2022-07-12T12:22:42;5.50;;;2.60;;
73434;SDS011;61648;52.094;5.054;2022-07-12T12:25:08;6.25;;;2.67;;
73434;SDS011;61648;52.094;5.054;2022-07-12T12:27:57;5.32;;;2.60;;
73434;SDS011;61648;52.094;5.054;2022-07-12T12:30:23;4.30;;;2.47;;
73434;SDS011;61648;52.094;5.054;2022-07-12T12:32:50;3.67;;;2.17;;
73434;SDS011;61648;52.094;5.054;2022-07-12T12:35:18;6.93;;;2.90;;
73434;SDS011;61648;52.094;5.054;2022-07-12T12:37:50;4.75;;;2.50;;
73434;SDS011;61648;52.094;5.054;2022-07-12T12:40:23;4.30;;;2.50;;
73434;SDS011;61648;52.094;5.054;2022-07-12T12:42:50;4.53;;;2.63;;
73434;SDS011;61648;52.094;5.054;2022-07-12T12:45:24;5.32;;;2.67;;
73434;SDS011;61648;52.094;5.054;2022-07-12T12:47:54;5.93;;;2.58;;
73434;SDS011;61648;52.094;5.054;2022-07-12T12:50:38;6.70;;;2.85;;
73434;SDS011;61648;52.094;5.054;2022-07-12T12:53:08;5.45;;;2.83;;
73434;SDS011;61648;52.094;5.054;2022-07-12T12:55:34;6.03;;;2.70;;
73434;SDS011;61648;52.094;5.054;2022-07-12T12:58:00;4.53;;;2.55;;
73434;SDS011;61648;52.094;5.054;2022-07-12T13:00:26;7.03;;;2.80;;
73434;SDS011;61648;52.094;5.054;2022-07-12T13:02:52;6.32;;;2.88;;
73434;SDS011;61648;52.094;5.054;2022-07-12T13:05:18;5.22;;;2.65;;
73434;SDS011;61648;52.094;5.054;2022-07-12T13:07:44;4.50;;;2.38;;
73434;SDS011;61648;52.094;5.054;2022-07-12T13:10:10;8.20;;;2.70;;
73434;SDS011;61648;52.094;5.054;2022-07-12T13:12:36;6.15;;;2.90;;
73434;SDS011;61648;52.094;5.054;2022-07-12T13:15:02;4.72;;;2.67;;
73434;SDS011;61648;52.094;5.054;2022-07-12T13:17:28;5.57;;;2.50;;
73434;SDS011;61648;52.094;5.054;2022-07-12T13:19:55;5.78;;;2.80;;
73434;SDS011;61648;52.094;5.054;2022-07-12T13:22:21;6.18;;;2.65;;
73434;SDS011;61648;52.094;5.054;2022-07-12T13:24:47;6.00;;;2.70;;
73434;SDS011;61648;52.094;5.054;2022-07-12T13:27:14;5.65;;;2.33;;
73434;SDS011;61648;52.094;5.054;2022-07-12T13:29:40;6.43;;;3.00;;
73434;SDS011;61648;52.094;5.054;2022-07-12T13:32:06;5.25;;;2.60;;
73434;SDS011;61648;52.094;5.054;2022-07-12T13:34:32;5.85;;;2.83;;
73434;SDS011;61648;52.094;5.054;2022-07-12T13:36:58;5.95;;;2.38;;
73434;SDS011;61648;52.094;5.054;2022-07-12T13:39:24;6.47;;;3.00;;
73434;SDS011;61648;52.094;5.054;2022-07-12T13:42:09;6.72;;;2.92;;
73434;SDS011;61648;52.094;5.054;2022-07-12T13:44:35;6.95;;;3.13;;
73434;SDS011;61648;52.094;5.054;2022-07-12T13:47:00;5.32;;;2.33;;
73434;SDS011;61648;52.094;5.054;2022-07-12T13:49:26;5.05;;;2.47;;
73434;SDS011;61648;52.094;5.054;2022-07-12T13:51:52;4.60;;;2.55;;
73434;SDS011;61648;52.094;5.054;2022-07-12T13:54:18;4.93;;;2.58;;
73434;SDS011;61648;52.094;5.054;2022-07-12T13:56:45;5.15;;;2.80;;
73434;SDS011;61648;52.094;5.054;2022-07-12T13:59:12;5.50;;;2.72;;
73434;SDS011;61648;52.094;5.054;2022-07-12T14:01:38;6.28;;;2.65;;
73434;SDS011;61648;52.094;5.054;2022-07-12T14:04:04;7.20;;;2.80;;
73434;SDS011;61648;52.094;5.054;2022-07-12T14:06:30;6.38;;;2.80;;
73434;SDS011;61648;52.094;5.054;2022-07-12T14:08:56;7.80;;;2.85;;
73434;SDS011;61648;52.094;5.054;2022-07-12T14:11:22;6.47;;;2.85;;
73434;SDS011;61648;52.094;5.054;2022-07-12T14:13:50;5.93;;;3.00;;
73434;SDS011;61648;52.094;5.054;2022-07-12T14:16:16;5.35;;;2.80;;
73434;SDS011;61648;52.094;5.054;2022-07-12T14:18:43;6.05;;;2.65;;
73434;SDS011;61648;52.094;5.054;2022-07-12T14:21:09;6.88;;;3.13;;
73434;SDS011;61648;52.094;5.054;2022-07-12T14:23:36;5.60;;;2.70;;
73434;SDS011;61648;52.094;5.054;2022-07-12T14:26:02;7.05;;;2.95;;
73434;SDS011;61648;52.094;5.054;2022-07-12T14:28:28;6.97;;;3.10;;
73434;SDS011;61648;52.094;5.054;2022-07-12T14:30:54;5.00;;;2.50;;
73434;SDS011;61648;52.094;5.054;2022-07-12T14:33:20;5.20;;;2.67;;
73434;SDS011;61648;52.094;5.054;2022-07-12T14:35:46;6.13;;;2.90;;
73434;SDS011;61648;52.094;5.054;2022-07-12T14:38:12;6.07;;;2.80;;
73434;SDS011;61648;52.094;5.054;2022-07-12T14:40:38;7.47;;;3.05;;
73434;SDS011;61648;52.094;5.054;2022-07-12T14:43:04;5.47;;;2.72;;
73434;SDS011;61648;52.094;5.054;2022-07-12T14:45:30;6.18;;;2.67;;
73434;SDS011;61648;52.094;5.054;2022-07-12T14:47:56;5.10;;;2.67;;
73434;SDS011;61648;52.094;5.054;2022-07-12T14:50:22;5.90;;;2.53;;
73434;SDS011;61648;52.094;5.054;2022-07-12T14:52:48;5.57;;;2.75;;
73434;SDS011;61648;52.094;5.054;2022-07-12T14:55:14;5.47;;;2.50;;
73434;SDS011;61648;52.094;5.054;2022-07-12T14:57:40;4.68;;;2.65;;
73434;SDS011;61648;52.094;5.054;2022-07-12T15:00:06;6.43;;;2.90;;
73434;SDS011;61648;52.094;5.054;2022-07-12T15:02:34;5.25;;;2.67;;
73434;SDS011;61648;52.094;5.054;2022-07-12T15:05:00;6.65;;;2.88;;
73434;SDS011;61648;52.094;5.054;2022-07-12T15:07:29;5.35;;;2.50;;
73434;SDS011;61648;52.094;5.054;2022-07-12T15:09:55;4.82;;;2.63;;
73434;SDS011;61648;52.094;5.054;2022-07-12T15:12:22;5.57;;;2.85;;
73434;SDS011;61648;52.094;5.054;2022-07-12T15:14:48;6.30;;;3.08;;
73434;SDS011;61648;52.094;5.054;2022-07-12T15:17:14;5.72;;;2.65;;
73434;SDS011;61648;52.094;5.054;2022-07-12T15:19:41;5.30;;;2.45;;
73434;SDS011;61648;52.094;5.054;2022-07-12T15:22:08;4.70;;;2.45;;
73434;SDS011;61648;52.094;5.054;2022-07-12T15:24:34;4.43;;;2.47;;
73434;SDS011;61648;52.094;5.054;2022-07-12T15:27:00;5.97;;;2.83;;
73434;SDS011;61648;52.094;5.054;2022-07-12T15:29:28;4.93;;;2.63;;
73434;SDS011;61648;52.094;5.054;2022-07-12T15:31:54;6.18;;;2.88;;
73434;SDS011;61648;52.094;5.054;2022-07-12T15:34:20;6.13;;;2.75;;
73434;SDS011;61648;52.094;5.054;2022-07-12T15:36:46;5.63;;;2.75;;
73434;SDS011;61648;52.094;5.054;2022-07-12T15:39:12;5.85;;;2.65;;
73434;SDS011;61648;52.094;5.054;2022-07-12T15:41:38;5.03;;;2.50;;
73434;SDS011;61648;52.094;5.054;2022-07-12T15:44:04;5.72;;;2.78;;
73434;SDS011;61648;52.094;5.054;2022-07-12T15:46:31;6.70;;;2.70;;
73434;SDS011;61648;52.094;5.054;2022-07-12T15:48:57;6.10;;;2.60;;
73434;SDS011;61648;52.094;5.054;2022-07-12T15:51:24;6.63;;;2.85;;
73434;SDS011;61648;52.094;5.054;2022-07-12T15:54:08;4.45;;;2.53;;
73434;SDS011;61648;52.094;5.054;2022-07-12T15:56:34;5.03;;;2.85;;
73434;SDS011;61648;52.094;5.054;2022-07-12T15:59:00;7.43;;;3.10;;
73434;SDS011;61648;52.094;5.054;2022-07-12T16:01:27;6.45;;;2.88;;
73434;SDS011;61648;52.094;5.054;2022-07-12T16:03:54;5.93;;;2.78;;
73434;SDS011;61648;52.094;5.054;2022-07-12T16:06:20;6.13;;;2.60;;
73434;SDS011;61648;52.094;5.054;2022-07-12T16:08:45;5.30;;;2.50;;
73434;SDS011;61648;52.094;5.054;2022-07-12T16:11:12;6.65;;;3.00;;
73434;SDS011;61648;52.094;5.054;2022-07-12T16:13:39;5.38;;;2.67;;
73434;SDS011;61648;52.094;5.054;2022-07-12T16:16:05;4.93;;;2.60;;
73434;SDS011;61648;52.094;5.054;2022-07-12T16:18:31;5.78;;;2.90;;
73434;SDS011;61648;52.094;5.054;2022-07-12T16:20:58;5.55;;;2.90;;
73434;SDS011;61648;52.094;5.054;2022-07-12T16:23:25;5.40;;;2.60;;
73434;SDS011;61648;52.094;5.054;2022-07-12T16:25:51;6.55;;;2.97;;
73434;SDS011;61648;52.094;5.054;2022-07-12T16:28:16;5.10;;;2.58;;
73434;SDS011;61648;52.094;5.054;2022-07-12T16:30:42;6.57;;;2.85;;
73434;SDS011;61648;52.094;5.054;2022-07-12T16:33:08;7.43;;;2.92;;
73434;SDS011;61648;52.094;5.054;2022-07-12T16:35:35;5.72;;;2.63;;
73434;SDS011;61648;52.094;5.054;2022-07-12T16:38:01;5.60;;;2.30;;
73434;SDS011;61648;52.094;5.054;2022-07-12T16:40:27;5.20;;;2.70;;
73434;SDS011;61648;52.094;5.054;2022-07-12T16:42:53;4.93;;;2.50;;
73434;SDS011;61648;52.094;5.054;2022-07-12T16:45:20;5.93;;;2.45;;
73434;SDS011;61648;52.094;5.054;2022-07-12T16:47:46;4.75;;;2.40;;
73434;SDS011;61648;52.094;5.054;2022-07-12T16:50:12;7.70;;;3.00;;
73434;SDS011;61648;52.094;5.054;2022-07-12T16:52:38;6.22;;;2.72;;
73434;SDS011;61648;52.094;5.054;2022-07-12T16:55:04;6.50;;;3.10;;
73434;SDS011;61648;52.094;5.054;2022-07-12T16:57:31;6.80;;;2.75;;
73434;SDS011;61648;52.094;5.054;2022-07-12T16:59:57;5.55;;;2.70;;
73434;SDS011;61648;52.094;5.054;2022-07-12T17:02:22;5.80;;;2.63;;
73434;SDS011;61648;52.094;5.054;2022-07-12T17:04:48;5.55;;;2.58;;
73434;SDS011;61648;52.094;5.054;2022-07-12T17:07:14;5.60;;;2.80;;
73434;SDS011;61648;52.094;5.054;2022-07-12T17:09:40;7.07;;;2.88;;
73434;SDS011;61648;52.094;5.054;2022-07-12T17:12:06;5.93;;;2.80;;
73434;SDS011;61648;52.094;5.054;2022-07-12T17:14:35;6.88;;;2.95;;
73434;SDS011;61648;52.094;5.054;2022-07-12T17:17:01;5.65;;;2.63;;
73434;SDS011;61648;52.094;5.054;2022-07-12T17:19:27;6.38;;;2.75;;
73434;SDS011;61648;52.094;5.054;2022-07-12T17:21:54;6.28;;;2.80;;
73434;SDS011;61648;52.094;5.054;2022-07-12T17:24:20;7.43;;;2.90;;
73434;SDS011;61648;52.094;5.054;2022-07-12T17:26:46;6.60;;;2.80;;
73434;SDS011;61648;52.094;5.054;2022-07-12T17:29:12;6.13;;;2.70;;
73434;SDS011;61648;52.094;5.054;2022-07-12T17:31:38;7.57;;;2.90;;
73434;SDS011;61648;52.094;5.054;2022-07-12T17:34:04;6.53;;;2.75;;
73434;SDS011;61648;52.094;5.054;2022-07-12T17:36:30;6.68;;;2.88;;
73434;SDS011;61648;52.094;5.054;2022-07-12T17:38:57;4.28;;;2.60;;
73434;SDS011;61648;52.094;5.054;2022-07-12T17:41:24;6.70;;;3.05;;
73434;SDS011;61648;52.094;5.054;2022-07-12T17:43:50;7.15;;;3.10;;
73434;SDS011;61648;52.094;5.054;2022-07-12T17:46:16;6.13;;;2.92;;
73434;SDS011;61648;52.094;5.054;2022-07-12T17:48:42;7.43;;;3.03;;
73434;SDS011;61648;52.094;5.054;2022-07-12T17:51:08;5.35;;;2.65;;
73434;SDS011;61648;52.094;5.054;2022-07-12T17:53:34;6.85;;;3.05;;
73434;SDS011;61648;52.094;5.054;2022-07-12T17:56:00;7.45;;;3.10;;
73434;SDS011;61648;52.094;5.054;2022-07-12T17:58:26;6.68;;;3.10;;
73434;SDS011;61648;52.094;5.054;2022-07-12T18:01:01;8.05;;;3.20;;
73434;SDS011;61648;52.094;5.054;2022-07-12T18:03:28;5.70;;;2.92;;
73434;SDS011;61648;52.094;5.054;2022-07-12T18:05:54;5.63;;;3.00;;
73434;SDS011;61648;52.094;5.054;2022-07-12T18:08:20;6.10;;;3.00;;
73434;SDS011;61648;52.094;5.054;2022-07-12T18:10:49;7.20;;;3.08;;
73434;SDS011;61648;52.094;5.054;2022-07-12T18:13:15;8.07;;;3.33;;
73434;SDS011;61648;52.094;5.054;2022-07-12T18:15:59;5.82;;;2.83;;
73434;SDS011;61648;52.094;5.054;2022-07-12T18:18:25;6.88;;;2.80;;
73434;SDS011;61648;52.094;5.054;2022-07-12T18:20:51;6.63;;;2.88;;
73434;SDS011;61648;52.094;5.054;2022-07-12T18:23:18;7.32;;;3.00;;
73434;SDS011;61648;52.094;5.054;2022-07-12T18:25:45;6.50;;;3.20;;
73434;SDS011;61648;52.094;5.054;2022-07-12T18:28:11;7.80;;;3.15;;
73434;SDS011;61648;52.094;5.054;2022-07-12T18:30:39;7.90;;;3.20;;
73434;SDS011;61648;52.094;5.054;2022-07-12T18:33:06;6.80;;;2.97;;
73434;SDS011;61648;52.094;5.054;2022-07-12T18:35:32;9.30;;;3.45;;
73434;SDS011;61648;52.094;5.054;2022-07-12T18:37:58;10.98;;;3.97;;
73434;SDS011;61648;52.094;5.054;2022-07-12T18:40:24;7.03;;;2.97;;
73434;SDS011;61648;52.094;5.054;2022-07-12T18:42:50;6.53;;;3.03;;
73434;SDS011;61648;52.094;5.054;2022-07-12T18:45:16;8.35;;;3.70;;
73434;SDS011;61648;52.094;5.054;2022-07-12T18:47:43;8.93;;;3.42;;
73434;SDS011;61648;52.094;5.054;2022-07-12T18:50:09;8.35;;;3.45;;
73434;SDS011;61648;52.094;5.054;2022-07-12T18:52:35;9.00;;;3.88;;
73434;SDS011;61648;52.094;5.054;2022-07-12T18:55:02;8.60;;;3.25;;
73434;SDS011;61648;52.094;5.054;2022-07-12T18:57:28;7.47;;;3.30;;
73434;SDS011;61648;52.094;5.054;2022-07-12T18:59:54;8.38;;;3.45;;
73434;SDS011;61648;52.094;5.054;2022-07-12T19:02:24;7.72;;;3.20;;
73434;SDS011;61648;52.094;5.054;2022-07-12T19:04:50;6.75;;;2.90;;
73434;SDS011;61648;52.094;5.054;2022-07-12T19:07:16;7.55;;;3.47;;
73434;SDS011;61648;52.094;5.054;2022-07-12T19:09:42;9.20;;;3.67;;
73434;SDS011;61648;52.094;5.054;2022-07-12T19:12:08;7.28;;;3.10;;
73434;SDS011;61648;52.094;5.054;2022-07-12T19:14:34;7.40;;;3.00;;
73434;SDS011;61648;52.094;5.054;2022-07-12T19:17:00;7.40;;;3.03;;
73434;SDS011;61648;52.094;5.054;2022-07-12T19:19:26;7.68;;;3.35;;
73434;SDS011;61648;52.094;5.054;2022-07-12T19:21:52;9.13;;;3.53;;
73434;SDS011;61648;52.094;5.054;2022-07-12T19:24:18;8.23;;;3.33;;
73434;SDS011;61648;52.094;5.054;2022-07-12T19:26:44;7.60;;;3.35;;
73434;SDS011;61648;52.094;5.054;2022-07-12T19:29:10;8.27;;;3.30;;
73434;SDS011;61648;52.094;5.054;2022-07-12T19:31:36;8.23;;;3.30;;
73434;SDS011;61648;52.094;5.054;2022-07-12T19:34:02;8.02;;;3.38;;
73434;SDS011;61648;52.094;5.054;2022-07-12T19:36:28;8.63;;;3.42;;
73434;SDS011;61648;52.094;5.054;2022-07-12T19:38:54;8.40;;;3.10;;
73434;SDS011;61648;52.094;5.054;2022-07-12T19:41:20;8.43;;;3.58;;
73434;SDS011;61648;52.094;5.054;2022-07-12T19:43:46;8.52;;;3.55;;
73434;SDS011;61648;52.094;5.054;2022-07-12T19:46:12;8.60;;;3.40;;
73434;SDS011;61648;52.094;5.054;2022-07-12T19:48:38;9.23;;;3.50;;
73434;SDS011;61648;52.094;5.054;2022-07-12T19:51:04;8.15;;;3.40;;
73434;SDS011;61648;52.094;5.054;2022-07-12T19:53:30;7.43;;;2.88;;
73434;SDS011;61648;52.094;5.054;2022-07-12T19:55:56;9.00;;;3.20;;
73434;SDS011;61648;52.094;5.054;2022-07-12T19:58:22;8.65;;;3.22;;
73434;SDS011;61648;52.094;5.054;2022-07-12T20:00:48;8.18;;;3.38;;